Time;durP1;ratioP1;P1;durP2;ratioP2;P2;SDS_P1;SDS_P2;PMS_P1;PMS_P2;Temp;Humidity;BMP_temperature;BMP_pressure;BME280_temperature;BME280_humidity;BME280_pressure;Samples;Min_cycle;Max_cycle;Signal;HPM_P1;HPM_P2
2022/04/08 00:00:59;;;;;;;18.23;11.27;;;;;;;10.17;92.23;99051.78;5012449;28;20547;-81
2022/04/08 00:03:25;;;;;;;18.98;11.40;;;;;;;10.11;93.34;99041.38;5009042;28;20049;-80
2022/04/08 00:05:52;;;;;;;18.95;12.18;;;;;;;10.27;92.92;99042.50;5009565;28;20042;-85
2022/04/08 00:08:19;;;;;;;17.90;11.95;;;;;;;10.41;92.35;99029.81;5009537;28;20430;-80
2022/04/08 00:10:44;;;;;;;18.17;11.40;;;;;;;10.52;90.98;99015.34;4993083;28;20592;-82
2022/04/08 00:13:10;;;;;;;22.90;12.13;;;;;;;10.62;91.33;99018.06;5009263;28;20041;-83
2022/04/08 00:15:38;;;;;;;17.55;10.27;;;;;;;10.69;91.02;99022.44;5009091;28;20045;-86
2022/04/08 00:18:04;;;;;;;17.67;10.50;;;;;;;10.72;90.76;99016.47;5008810;28;20123;-81
2022/04/08 00:20:30;;;;;;;16.13;10.45;;;;;;;10.56;90.64;98981.88;5009179;28;20445;-91
2022/04/08 00:22:56;;;;;;;20.23;10.43;;;;;;;10.82;90.23;99015.75;5009706;28;20053;-84
2022/04/08 00:25:21;;;;;;;17.35;10.50;;;;;;;10.93;90.96;99027.06;5008948;28;20034;-87
2022/04/08 00:27:47;;;;;;;16.00;10.15;;;;;;;11.03;90.81;99040.06;5008916;28;20067;-77
2022/04/08 00:30:12;;;;;;;16.55;9.35;;;;;;;10.81;90.16;98990.78;5008973;28;20156;-77
2022/04/08 00:32:37;;;;;;;14.02;8.80;;;;;;;11.13;89.89;99034.19;5008766;28;20128;-77
2022/04/08 00:35:03;;;;;;;15.80;8.80;;;;;;;11.19;90.06;99047.19;5010499;28;20041;-77
2022/04/08 00:37:28;;;;;;;14.48;9.35;;;;;;;11.18;89.01;99048.03;5011551;28;20511;-79
2022/04/08 00:39:54;;;;;;;16.50;8.70;;;;;;;11.21;89.48;99032.53;5011431;28;20041;-78
2022/04/08 00:42:19;;;;;;;16.92;9.73;;;;;;;11.25;89.31;99036.91;5010368;28;20030;-79
2022/04/08 00:44:45;;;;;;;21.20;8.25;;;;;;;11.25;89.76;99055.00;5009678;28;20033;-79
2022/04/08 00:47:11;;;;;;;16.85;8.82;;;;;;;11.17;90.91;99060.06;5011009;28;20030;-78
2022/04/08 00:49:37;;;;;;;13.50;7.78;;;;;;;11.14;90.91;99060.03;5011073;28;20061;-78
2022/04/08 00:52:04;;;;;;;17.15;8.43;;;;;;;11.12;91.29;99058.28;5011179;28;20132;-78
2022/04/08 00:54:30;;;;;;;33.78;23.90;;;;;;;11.07;91.36;99062.53;5017252;28;20484;-80
2022/04/08 00:56:57;;;;;;;18.27;12.57;;;;;;;11.13;91.50;99068.63;5030901;28;20061;-79
2022/04/08 00:59:25;;;;;;;14.90;8.90;;;;;;;11.07;91.59;99068.56;5030501;28;20041;-80
2022/04/08 01:01:51;;;;;;;13.70;9.55;;;;;;;11.10;90.86;99068.59;5012370;28;20555;-79
2022/04/08 01:04:16;;;;;;;17.35;10.35;;;;;;;11.23;90.41;99079.94;5030658;28;20033;-79
2022/04/08 01:06:44;;;;;;;16.20;9.55;;;;;;;11.28;89.92;99072.25;5030401;28;20477;-79
2022/04/08 01:09:10;;;;;;;16.55;10.57;;;;;;;11.31;89.72;99088.66;5030594;28;20037;-79
2022/04/08 01:11:37;;;;;;;15.73;9.35;;;;;;;11.23;90.08;99069.59;5029134;28;20033;-79
2022/04/08 01:14:10;;;;;;;16.75;9.52;;;;;;;11.45;90.14;99095.69;5030276;28;20128;-82
2022/04/08 01:16:36;;;;;;;17.83;9.63;;;;;;;11.50;89.34;99099.19;5030426;28;20034;-80
2022/04/08 01:19:04;;;;;;;16.23;9.93;;;;;;;11.53;89.39;99095.78;5029082;28;20390;-79
2022/04/08 01:21:31;;;;;;;13.48;9.15;;;;;;;11.33;89.17;99061.09;5030469;28;20029;-78
2022/04/08 01:23:57;;;;;;;19.38;9.77;;;;;;;11.49;89.47;99079.38;5030882;28;20017;-79
2022/04/08 01:26:23;;;;;;;16.35;8.88;;;;;;;11.62;88.86;99093.28;5030283;28;20026;-80
2022/04/08 01:28:49;;;;;;;19.33;9.23;;;;;;;11.69;88.49;99087.34;5030202;28;20032;-80
2022/04/08 01:31:15;;;;;;;13.50;8.13;;;;;;;11.59;88.68;99064.81;5030188;28;20044;-79
2022/04/08 01:33:41;;;;;;;12.38;7.70;;;;;;;11.68;88.19;99072.66;4996133;28;20506;-80
2022/04/08 01:36:07;;;;;;;13.52;8.27;;;;;;;11.88;86.90;99097.84;5030240;28;20074;-79
2022/04/08 01:38:33;;;;;;;14.05;7.65;;;;;;;11.92;87.52;99104.78;5030052;28;20025;-79
2022/04/08 01:40:58;;;;;;;13.40;7.57;;;;;;;11.89;87.56;99095.28;5030697;28;20493;-79
2022/04/08 01:43:24;;;;;;;15.10;7.20;;;;;;;11.95;87.67;99100.50;5028686;28;20111;-81
2022/04/08 01:45:49;;;;;;;13.27;7.60;;;;;;;11.72;88.74;99094.25;5030367;28;20030;-79
2022/04/08 01:48:15;;;;;;;16.10;8.07;;;;;;;11.40;90.65;99084.41;5030265;28;20029;-79
2022/04/08 01:50:40;;;;;;;16.23;7.65;;;;;;;11.38;90.40;99078.41;5029930;28;20567;-79
2022/04/08 01:53:06;;;;;;;11.85;7.03;;;;;;;11.49;90.77;99100.06;5030134;28;20065;-78
2022/04/08 01:55:31;;;;;;;13.85;7.18;;;;;;;11.59;90.62;99111.31;5034380;28;20128;-79
2022/04/08 01:57:57;;;;;;;14.38;6.80;;;;;;;11.60;90.46;99105.31;5033633;28;20025;-78
2022/04/08 02:00:22;;;;;;;12.43;7.13;;;;;;;11.60;91.32;99100.16;5034208;28;20389;-80
2022/04/08 02:02:47;;;;;;;15.60;7.28;;;;;;;11.42;91.94;99101.69;5033930;28;20028;-79
2022/04/08 02:05:13;;;;;;;10.98;7.03;;;;;;;11.47;92.52;99118.09;5033639;28;20021;-80
2022/04/08 02:07:38;;;;;;;14.13;7.32;;;;;;;11.33;92.93;99092.09;5034070;28;20469;-80
2022/04/08 02:10:05;;;;;;;14.77;7.65;;;;;;;11.55;93.24;99125.06;5033871;28;20035;-80
2022/04/08 02:12:31;;;;;;;14.10;7.38;;;;;;;11.53;93.63;99121.63;5033652;28;20022;-80
2022/04/08 02:14:56;;;;;;;11.77;7.70;;;;;;;11.24;94.30;99093.72;5034041;28;20401;-80
2022/04/08 02:17:25;;;;;;;11.85;7.25;;;;;;;11.40;94.29;99124.06;5033779;28;20033;-80
2022/04/08 02:19:52;;;;;;;13.40;8.10;;;;;;;11.13;96.11;99101.34;5033877;28;20374;-79
2022/04/08 02:22:18;;;;;;;12.68;7.97;;;;;;;11.32;96.40;99120.50;5033908;28;20037;-79
2022/04/08 02:24:43;;;;;;;15.68;7.70;;;;;;;11.05;96.49;99096.06;5033460;28;20037;-79
2022/04/08 02:27:09;;;;;;;13.40;7.80;;;;;;;11.30;96.13;99135.13;5033320;28;20443;-79
2022/04/08 02:29:34;;;;;;;15.00;7.88;;;;;;;11.35;96.22;99122.25;5032496;28;20059;-79
2022/04/08 02:32:00;;;;;;;12.13;8.07;;;;;;;11.42;96.23;99124.94;5033229;28;20461;-79
2022/04/08 02:34:25;;;;;;;14.30;8.35;;;;;;;11.37;96.49;99118.00;5032963;28;20043;-79
2022/04/08 02:36:51;;;;;;;11.90;7.20;;;;;;;11.43;96.18;99121.50;5032175;28;20025;-79
2022/04/08 02:39:17;;;;;;;11.40;7.80;;;;;;;11.45;95.62;99106.00;5033192;28;20025;-79
2022/04/08 02:41:42;;;;;;;15.43;8.07;;;;;;;11.56;94.95;99126.81;5032717;28;20029;-80
2022/04/08 02:44:08;;;;;;;14.30;8.07;;;;;;;11.62;94.81;99129.47;5031906;28;20079;-84
2022/04/08 02:46:34;;;;;;;12.50;7.97;;;;;;;11.62;94.99;99130.31;5015434;28;20033;-80
2022/04/08 02:49:00;;;;;;;16.48;8.00;;;;;;;11.33;95.39;99091.25;5033267;28;20393;-80
2022/04/08 02:51:27;;;;;;;11.52;7.63;;;;;;;11.56;95.16;99138.00;5033446;28;20417;-81
2022/04/08 02:53:53;;;;;;;12.65;7.65;;;;;;;11.44;95.72;99131.00;5014898;28;20033;-79
2022/04/08 02:56:18;;;;;;;15.40;8.27;;;;;;;11.54;95.72;99144.00;5032589;28;20033;-81
2022/04/08 02:58:47;;;;;;;13.35;8.35;;;;;;;11.33;96.38;99124.84;5032824;28;20063;-80
2022/04/08 03:01:12;;;;;;;14.57;9.00;;;;;;;11.30;96.89;99151.50;5032978;28;20036;-80
2022/04/08 03:03:38;;;;;;;12.15;7.82;;;;;;;11.13;99.38;99153.88;5032792;28;20029;-78
2022/04/08 03:06:03;;;;;;;13.13;8.13;;;;;;;10.94;100.00;99157.03;5032264;28;20025;-79
2022/04/08 03:11:51;;;;;;;14.23;7.75;;;;;;;10.85;100.00;99147.44;5157056;22;20129;-79
2022/04/08 03:14:17;;;;;;;11.00;7.32;;;;;;;10.82;100.00;99132.78;5072972;28;20040;-79
2022/04/08 03:16:42;;;;;;;13.13;6.05;;;;;;;11.03;99.54;99133.03;5060152;28;20029;-81
2022/04/08 03:19:07;;;;;;;10.65;5.63;;;;;;;11.19;95.24;99134.13;5041819;28;20028;-80
2022/04/08 03:21:33;;;;;;;7.05;4.38;;;;;;;11.35;93.74;99154.13;5032557;28;20029;-80
2022/04/08 03:23:59;;;;;;;9.90;4.45;;;;;;;11.47;92.31;99146.53;5033129;28;20409;-80
2022/04/08 03:26:24;;;;;;;7.63;3.90;;;;;;;11.56;91.40;99153.53;5032762;28;20110;-80
2022/04/08 03:28:50;;;;;;;7.35;4.10;;;;;;;11.52;91.51;99154.34;5032825;28;20396;-80
2022/04/08 03:31:15;;;;;;;7.68;4.25;;;;;;;11.55;91.15;99161.25;5032582;28;20568;-80
2022/04/08 03:33:41;;;;;;;9.52;4.35;;;;;;;11.62;90.80;99165.66;5032870;28;20044;-81
2022/04/08 03:36:07;;;;;;;6.32;4.13;;;;;;;11.53;90.62;99162.97;5032345;28;20041;-81
2022/04/08 03:38:33;;;;;;;5.90;4.30;;;;;;;11.59;90.88;99170.78;5032472;28;20603;-80
2022/04/08 03:40:59;;;;;;;6.45;4.13;;;;;;;11.60;90.69;99172.53;5032222;28;20064;-79
2022/04/08 03:43:25;;;;;;;10.02;4.22;;;;;;;11.52;90.14;99156.06;5040865;28;20448;-80
2022/04/08 03:45:50;;;;;;;8.27;4.18;;;;;;;11.64;89.52;99174.31;5041074;28;20484;-79
2022/04/08 03:48:16;;;;;;;6.82;4.07;;;;;;;11.64;88.47;99182.94;5050466;28;20025;-78
2022/04/08 03:50:41;;;;;;;9.40;3.50;;;;;;;11.55;88.05;99174.19;5052052;28;20032;-77
2022/04/08 03:53:09;;;;;;;7.78;3.72;;;;;;;11.40;87.56;99155.06;5051724;28;20021;-79
2022/04/08 03:55:36;;;;;;;8.18;3.88;;;;;;;11.61;86.90;99195.81;5052089;28;20053;-78
2022/04/08 03:58:02;;;;;;;6.50;3.90;;;;;;;11.64;86.82;99192.41;5050890;28;20392;-78
2022/04/08 04:00:27;;;;;;;7.10;3.53;;;;;;;11.51;86.60;99193.97;5050859;28;20029;-79
2022/04/08 04:02:52;;;;;;;5.45;3.42;;;;;;;11.59;87.13;99207.84;5051371;28;20099;-80
2022/04/08 04:05:18;;;;;;;8.50;4.15;;;;;;;11.68;86.15;99217.44;5051499;28;20428;-78
2022/04/08 04:07:43;;;;;;;9.23;3.97;;;;;;;11.59;86.32;99207.84;5051798;28;20039;-79
2022/04/08 04:10:11;;;;;;;6.97;3.95;;;;;;;11.56;86.20;99201.78;5051688;28;20450;-79
2022/04/08 04:12:37;;;;;;;6.97;4.03;;;;;;;11.31;85.96;99162.69;5051734;28;20037;-79
2022/04/08 04:15:04;;;;;;;7.78;3.95;;;;;;;11.49;85.98;99209.44;5051539;28;20081;-79
2022/04/08 04:17:30;;;;;;;10.23;3.22;;;;;;;11.42;86.43;99223.13;5049311;28;20090;-78
2022/04/08 04:19:56;;;;;;;4.82;3.45;;;;;;;11.24;86.64;99213.44;5051512;28;20037;-78
2022/04/08 04:22:21;;;;;;;6.95;3.08;;;;;;;11.17;87.31;99217.63;5051231;28;20162;-78
2022/04/08 04:24:46;;;;;;;4.65;3.17;;;;;;;11.02;87.17;99201.06;5044433;28;20028;-80
2022/04/08 04:27:12;;;;;;;6.25;3.50;;;;;;;11.15;87.20;99236.53;5044647;28;20102;-80
2022/04/08 04:29:37;;;;;;;4.88;3.00;;;;;;;11.11;86.91;99227.88;5035236;28;20037;-79
2022/04/08 04:32:05;;;;;;;5.95;3.05;;;;;;;10.97;86.90;99219.06;5030934;28;20040;-80
2022/04/08 04:34:32;;;;;;;8.57;3.33;;;;;;;11.21;87.30;99256.44;5031331;28;20124;-79
2022/04/08 04:36:58;;;;;;;5.43;3.42;;;;;;;11.26;87.33;99254.78;5031207;28;20048;-79
2022/04/08 04:39:23;;;;;;;6.13;2.97;;;;;;;11.30;86.82;99254.84;5031484;28;20052;-78
2022/04/08 04:41:48;;;;;;;5.97;2.90;;;;;;;11.32;86.24;99257.47;5030931;28;20026;-79
2022/04/08 04:44:14;;;;;;;5.63;3.03;;;;;;;11.19;86.06;99242.63;5029646;28;20166;-80
2022/04/08 04:46:39;;;;;;;5.07;3.35;;;;;;;11.13;86.41;99244.25;5030701;28;20030;-80
2022/04/08 04:49:05;;;;;;;5.70;2.88;;;;;;;11.20;86.42;99276.22;5030937;28;20729;-80
2022/04/08 04:51:30;;;;;;;6.57;3.03;;;;;;;11.10;87.22;99279.50;5031234;28;20531;-81
2022/04/08 04:53:57;;;;;;;5.72;3.00;;;;;;;10.92;86.92;99238.78;5029883;28;20047;-80
2022/04/08 04:56:23;;;;;;;5.30;3.05;;;;;;;11.23;86.25;99280.59;5029021;28;20029;-80
2022/04/08 04:58:49;;;;;;;7.13;2.90;;;;;;;11.32;85.74;99296.22;5030079;28;20031;-81
2022/04/08 05:01:14;;;;;;;6.13;3.10;;;;;;;11.41;85.62;99293.75;5028378;28;20122;-82
2022/04/08 05:03:40;;;;;;;7.97;3.20;;;;;;;11.48;85.22;99285.25;5030537;28;20461;-81
2022/04/08 05:06:05;;;;;;;4.10;2.92;;;;;;;11.61;84.74;99293.16;5028858;28;20491;-79
2022/04/08 05:08:31;;;;;;;7.50;3.60;;;;;;;11.73;84.16;99303.69;5030131;28;20456;-79
2022/04/08 05:10:58;;;;;;;6.50;3.20;;;;;;;11.83;82.75;99304.69;5030036;28;20543;-79
2022/04/08 05:13:23;;;;;;;5.35;2.63;;;;;;;11.80;81.41;99308.09;5029637;28;20521;-80
2022/04/08 05:15:48;;;;;;;6.05;2.70;;;;;;;11.78;81.80;99320.13;5029660;28;20049;-80
2022/04/08 05:18:14;;;;;;;5.38;2.63;;;;;;;11.70;82.59;99303.66;5029145;28;20039;-80
2022/04/08 05:20:39;;;;;;;5.93;2.45;;;;;;;11.82;81.67;99315.88;5029834;28;20103;-81
2022/04/08 05:23:05;;;;;;;5.50;2.47;;;;;;;11.86;81.68;99309.03;5029982;28;20030;-80
2022/04/08 05:25:30;;;;;;;5.72;2.97;;;;;;;12.03;80.92;99332.56;5028465;28;20460;-81
2022/04/08 05:27:56;;;;;;;3.33;2.45;;;;;;;12.06;80.22;99325.69;5028636;28;20029;-81
2022/04/08 05:30:21;;;;;;;3.30;2.50;;;;;;;12.22;79.67;99339.66;5033643;28;20025;-82
2022/04/08 05:32:47;;;;;;;4.10;2.38;;;;;;;12.05;78.23;99298.09;5033392;28;20021;-79
2022/04/08 05:35:17;;;;;;;3.72;2.53;;;;;;;12.07;78.77;99298.97;5033684;28;20104;-81
2022/04/08 05:37:48;;;;;;;5.57;2.40;;;;;;;12.40;77.96;99339.03;5049395;28;20481;-80
2022/04/08 05:40:17;;;;;;;5.82;2.22;;;;;;;12.30;77.54;99307.00;5052263;28;20041;-82
2022/04/08 05:42:47;;;;;;;4.47;2.60;;;;;;;12.65;77.18;99341.00;5046311;28;20460;-82
2022/04/08 05:45:14;;;;;;;5.57;2.25;;;;;;;12.57;75.15;99315.03;5033727;28;20037;-82
2022/04/08 05:47:41;;;;;;;3.38;2.50;;;;;;;12.92;75.44;99350.75;5030665;28;20038;-81
2022/04/08 05:50:07;;;;;;;3.22;1.95;;;;;;;12.94;74.13;99341.28;5031311;28;20048;-79
2022/04/08 05:52:32;;;;;;;3.33;2.08;;;;;;;13.05;73.54;99350.03;5031252;28;20041;-82
2022/04/08 05:54:58;;;;;;;5.60;2.40;;;;;;;13.15;73.94;99356.16;5016385;28;20032;-80
2022/04/08 05:57:24;;;;;;;3.85;2.28;;;;;;;13.09;73.45;99356.09;5030975;28;20500;-80
2022/04/08 05:59:50;;;;;;;6.07;2.17;;;;;;;13.04;72.06;99342.25;5030906;28;20915;-80
2022/04/08 06:02:16;;;;;;;13.68;4.63;;;;;;;13.23;72.21;99375.25;5010547;28;20041;-77
2022/04/08 06:04:43;;;;;;;3.03;2.20;;;;;;;13.19;72.61;99388.16;5010955;28;20498;-80
2022/04/08 06:07:09;;;;;;;4.45;2.40;;;;;;;13.22;72.20;99404.59;5019513;28;20116;-80
2022/04/08 06:09:34;;;;;;;5.22;2.80;;;;;;;13.09;72.54;99387.19;5030098;28;20042;-78
2022/04/08 06:12:00;;;;;;;4.82;2.35;;;;;;;13.25;72.62;99408.94;5011891;28;20061;-77
2022/04/08 06:14:26;;;;;;;3.95;2.50;;;;;;;13.25;71.48;99403.75;5010210;28;20045;-78
2022/04/08 06:16:55;;;;;;;2.63;1.90;;;;;;;13.10;70.14;99369.06;4994608;28;20053;-78
2022/04/08 06:19:20;;;;;;;4.10;2.22;;;;;;;13.08;70.71;99370.81;4994214;28;20536;-79
2022/04/08 06:21:45;;;;;;;4.78;1.90;;;;;;;13.36;68.99;99398.69;5010598;28;20096;-77
2022/04/08 06:24:11;;;;;;;7.28;2.95;;;;;;;13.67;71.73;99405.00;5010783;28;20095;-78
2022/04/08 06:26:36;;;;;;;3.63;2.20;;;;;;;13.82;67.46;99416.31;5010477;28;20029;-78
2022/04/08 06:29:05;;;;;;;6.00;2.08;;;;;;;13.89;68.00;99412.91;5010625;28;20519;-79
2022/04/08 06:31:34;;;;;;;4.13;1.93;;;;;;;14.07;66.91;99435.53;5010556;28;20029;-80
2022/04/08 06:34:00;;;;;;;3.58;2.38;;;;;;;14.13;68.95;99432.97;5028090;28;20303;-78
2022/04/08 06:36:27;;;;;;;6.45;2.42;;;;;;;14.32;66.69;99431.34;5049641;28;20025;-78
2022/04/08 06:38:53;;;;;;;3.85;2.00;;;;;;;14.39;66.79;99430.50;5052679;28;20029;-79
2022/04/08 06:41:19;;;;;;;3.97;2.17;;;;;;;14.41;64.68;99427.91;5051004;28;20021;-79
2022/04/08 06:43:45;;;;;;;2.83;1.20;;;;;;;14.37;63.72;99395.00;5052442;28;20052;-79
2022/04/08 06:46:11;;;;;;;4.60;1.88;;;;;;;14.46;63.61;99412.34;5052951;28;20033;-79
2022/04/08 06:48:36;;;;;;;4.18;2.13;;;;;;;14.85;64.33;99455.84;5052930;28;20025;-78
2022/04/08 06:51:04;;;;;;;2.78;1.92;;;;;;;14.79;63.28;99428.94;5053046;28;20033;-78
2022/04/08 06:53:30;;;;;;;4.20;1.75;;;;;;;15.16;63.25;99476.69;5053140;28;20384;-78
2022/04/08 06:55:55;;;;;;;3.28;1.98;;;;;;;15.17;60.85;99475.81;5052571;28;20108;-78
2022/04/08 06:58:21;;;;;;;2.78;1.95;;;;;;;15.16;61.08;99455.03;5053082;28;20079;-79
2022/04/08 07:00:46;;;;;;;3.33;1.85;;;;;;;15.44;59.81;99487.16;5052573;28;20468;-78
2022/04/08 07:03:12;;;;;;;4.80;2.55;;;;;;;15.37;58.75;99472.41;5052902;28;20025;-78
2022/04/08 07:05:37;;;;;;;4.90;2.10;;;;;;;15.56;60.93;99488.03;5052634;28;20047;-78
2022/04/08 07:08:03;;;;;;;4.95;2.10;;;;;;;15.61;58.92;99471.53;5052482;28;20122;-78
2022/04/08 07:10:28;;;;;;;6.63;2.30;;;;;;;15.80;59.54;99494.94;5052306;28;20045;-78
2022/04/08 07:12:54;;;;;;;6.00;2.08;;;;;;;15.74;60.31;99479.34;5053109;28;20112;-77
2022/04/08 07:15:19;;;;;;;5.40;2.78;;;;;;;16.00;60.14;99469.81;5051498;28;20083;-78
2022/04/08 07:17:45;;;;;;;5.10;2.40;;;;;;;16.21;58.74;99485.41;5052406;28;20094;-77
2022/04/08 07:20:13;;;;;;;3.63;2.10;;;;;;;16.04;57.41;99472.41;5052203;28;20063;-78
2022/04/08 07:22:40;;;;;;;3.63;1.95;;;;;;;16.10;57.02;99477.59;5051334;28;20086;-79
2022/04/08 07:25:06;;;;;;;9.45;2.20;;;;;;;16.14;56.28;99462.00;5051822;28;20459;-78
2022/04/08 07:27:46;;;;;;;4.20;2.03;;;;;;;16.45;55.65;99498.38;5052414;28;20029;-78
2022/04/08 07:30:12;;;;;;;5.40;1.80;;;;;;;16.50;55.84;99490.56;5051734;28;20094;-77
2022/04/08 07:32:38;;;;;;;2.53;1.42;;;;;;;16.40;53.88;99478.41;5052298;28;20060;-77
2022/04/08 07:35:04;;;;;;;4.88;2.13;;;;;;;16.42;53.90;99492.31;5052100;28;20059;-77
2022/04/08 07:37:30;;;;;;;2.35;1.58;;;;;;;16.64;54.02;99500.94;5051675;28;20032;-76
2022/04/08 07:39:57;;;;;;;3.28;1.63;;;;;;;16.78;54.18;99493.06;5052046;28;20029;-75
2022/04/08 07:42:23;;;;;;;3.15;1.67;;;;;;;16.86;52.35;99506.94;5052220;28;20063;-75
2022/04/08 07:44:49;;;;;;;5.40;1.33;;;;;;;17.07;51.36;99505.13;5052092;28;20032;-77
2022/04/08 07:47:15;;;;;;;4.28;1.85;;;;;;;17.01;51.72;99503.44;5052004;28;20029;-76
2022/04/08 07:49:42;;;;;;;2.35;1.50;;;;;;;17.35;51.40;99504.97;5051866;28;20021;-76
2022/04/08 07:52:07;;;;;;;6.93;2.00;;;;;;;17.53;51.32;99493.53;5051193;28;20029;-75
2022/04/08 07:54:33;;;;;;;3.25;1.50;;;;;;;17.52;50.53;99500.50;5051344;28;20025;-75
2022/04/08 07:56:59;;;;;;;6.35;2.08;;;;;;;17.71;50.31;99497.75;5051370;28;20112;-77
2022/04/08 07:59:24;;;;;;;4.88;2.25;;;;;;;17.59;48.87;99498.72;5051396;28;20507;-80
2022/04/08 08:01:50;;;;;;;4.07;2.05;;;;;;;17.72;48.94;99499.47;5051488;28;20037;-78
2022/04/08 08:04:16;;;;;;;2.35;1.42;;;;;;;17.89;48.02;99512.41;5051395;28;20025;-78
2022/04/08 08:06:41;;;;;;;4.95;1.70;;;;;;;17.79;48.25;99506.38;5050717;28;20029;-78
2022/04/08 08:09:06;;;;;;;2.80;1.65;;;;;;;18.02;47.97;99493.16;5051305;28;20032;-78
2022/04/08 08:11:32;;;;;;;5.13;2.15;;;;;;;17.99;48.06;99476.66;5051918;28;20048;-80
2022/04/08 08:13:58;;;;;;;4.50;1.77;;;;;;;18.11;46.56;99487.00;5051139;28;20079;-78
2022/04/08 08:16:23;;;;;;;4.57;2.00;;;;;;;18.15;44.98;99490.44;5051164;28;20036;-78
2022/04/08 08:18:50;;;;;;;5.63;2.08;;;;;;;18.33;47.04;99481.53;5051287;28;20040;-78
2022/04/08 08:21:16;;;;;;;2.97;1.85;;;;;;;18.44;45.79;99492.72;5051316;28;20602;-78
2022/04/08 08:23:41;;;;;;;7.05;2.25;;;;;;;18.62;47.26;99481.22;5050906;28;20108;-78
2022/04/08 08:26:07;;;;;;;5.55;2.17;;;;;;;18.52;45.86;99487.44;5050999;28;20024;-78
2022/04/08 08:28:32;;;;;;;4.82;1.75;;;;;;;18.46;47.91;99466.59;5050641;28;20479;-79
2022/04/08 08:30:57;;;;;;;5.18;1.60;;;;;;;18.55;44.44;99466.47;5050506;28;20055;-79
2022/04/08 08:33:23;;;;;;;3.20;1.70;;;;;;;18.65;45.54;99462.88;5050456;28;20219;-78
2022/04/08 08:35:48;;;;;;;5.50;1.88;;;;;;;18.85;42.36;99473.06;5050447;28;20506;-78
2022/04/08 08:38:14;;;;;;;9.15;2.00;;;;;;;19.03;42.03;99487.69;5050237;28;20025;-78
2022/04/08 08:40:43;;;;;;;4.10;1.75;;;;;;;19.17;41.44;99497.97;5048904;28;20039;-79
2022/04/08 08:43:14;;;;;;;;;;;;;;;19.20;41.33;99511.03;5050736;28;20124;-78
2022/04/08 08:45:42;;;;;;;3.97;1.60;;;;;;;19.23;42.04;99513.56;5050422;28;19925;-77
2022/04/08 08:48:08;;;;;;;4.63;1.63;;;;;;;19.41;39.85;99522.06;5045922;28;20117;-78
2022/04/08 08:50:37;;;;;;;2.88;1.55;;;;;;;19.46;38.79;99519.38;5040563;28;20067;-80
2022/04/08 08:53:03;;;;;;;4.38;1.80;;;;;;;19.65;37.47;99519.94;5048744;28;20027;-82
2022/04/08 08:55:28;;;;;;;5.93;1.73;;;;;;;19.76;37.11;99520.66;5048905;28;20025;-78
2022/04/08 08:57:54;;;;;;;3.92;1.60;;;;;;;19.96;36.85;99524.72;5049840;28;20151;-78
2022/04/08 09:00:22;;;;;;;3.08;1.70;;;;;;;19.98;36.21;99510.72;5050464;28;20166;-78
2022/04/08 09:02:48;;;;;;;4.90;1.70;;;;;;;19.56;36.59;99464.25;5049526;28;20100;-77
2022/04/08 09:05:23;;;;;;;5.50;1.85;;;;;;;19.87;36.40;99468.97;5014108;28;20032;-78
2022/04/08 09:08:00;;;;;;;3.90;1.60;;;;;;;20.05;37.79;99493.16;5048768;28;20021;-77
2022/04/08 09:10:31;;;;;;;3.92;1.98;;;;;;;20.23;35.71;99509.44;5050335;28;20045;-78
2022/04/08 09:12:58;;;;;;;3.00;1.65;;;;;;;20.29;34.91;99511.94;5049490;28;20037;-78
2022/04/08 09:15:24;;;;;;;2.90;1.90;;;;;;;20.28;36.22;99502.34;5049795;28;20079;-78
2022/04/08 09:17:51;;;;;;;3.55;1.80;;;;;;;20.53;34.35;99506.22;5049424;28;20021;-78
2022/04/08 09:20:16;;;;;;;4.53;1.63;;;;;;;20.43;35.93;99482.84;5049955;28;20082;-78
2022/04/08 09:22:43;;;;;;;4.93;1.95;;;;;;;20.36;35.07;99461.09;5048636;28;20481;-77
2022/04/08 09:25:12;;;;;;;3.42;1.63;;;;;;;20.48;34.04;99468.72;5048235;28;20025;-78
2022/04/08 09:27:39;;;;;;;3.17;1.55;;;;;;;20.55;33.55;99505.31;5049447;28;20033;-78
2022/04/08 09:30:05;;;;;;;3.95;1.27;;;;;;;20.50;33.45;99500.19;5047935;28;20516;-79
2022/04/08 09:32:30;;;;;;;2.63;1.70;;;;;;;20.51;33.69;99492.28;5049893;28;20056;-78
2022/04/08 09:34:56;;;;;;;2.38;1.48;;;;;;;20.63;34.05;99492.94;5050127;28;20086;-77
2022/04/08 09:37:21;;;;;;;2.22;1.60;;;;;;;20.85;32.30;99515.22;5049498;28;20028;-77
2022/04/08 09:39:58;;;;;;;2.67;1.48;;;;;;;20.95;32.57;99513.28;5050410;28;20028;-80
2022/04/08 09:42:40;;;;;;;4.07;1.40;;;;;;;21.04;33.05;99517.47;5049055;28;20044;-78
2022/04/08 09:45:06;;;;;;;4.45;1.58;;;;;;;21.34;33.42;99525.56;5044899;28;20420;-80
2022/04/08 09:47:32;;;;;;;2.47;1.45;;;;;;;21.32;32.90;99520.34;5049290;28;20048;-79
2022/04/08 09:49:57;;;;;;;5.05;1.50;;;;;;;21.39;33.20;99523.69;5038964;28;20032;-76
2022/04/08 09:52:25;;;;;;;5.40;1.70;;;;;;;21.55;33.76;99518.97;5028510;28;20037;-76
2022/04/08 09:54:57;;;;;;;4.22;1.60;;;;;;;21.64;32.22;99512.66;5029969;28;20704;-75
2022/04/08 09:57:23;;;;;;;2.88;1.48;;;;;;;21.55;32.81;99508.44;5030310;28;20493;-76
2022/04/08 09:59:55;;;;;;;4.28;1.90;;;;;;;21.61;33.02;99500.47;5030106;28;20025;-75
2022/04/08 10:02:24;;;;;;;7.30;1.63;;;;;;;21.73;31.34;99514.19;5029982;28;20040;-77
2022/04/08 10:04:50;;;;;;;9.13;1.92;;;;;;;21.84;32.00;99471.91;5029542;28;20026;-76
2022/04/08 10:07:16;;;;;;;3.15;1.73;;;;;;;21.96;34.57;99518.91;5029584;28;20045;-77
2022/04/08 10:09:54;;;;;;;2.65;1.80;;;;;;;21.98;35.34;99504.81;5029790;28;20401;-75
2022/04/08 10:13:04;;;;;;;3.13;1.65;;;;;;;21.91;32.75;99523.41;5029459;28;20041;-77
2022/04/08 10:16:14;;;;;;;3.58;1.60;;;;;;;21.97;32.87;99515.38;4989624;28;20065;-76
2022/04/08 10:18:42;;;;;;;2.97;1.63;;;;;;;22.01;32.35;99524.88;4933001;29;20107;-77
2022/04/08 10:21:10;;;;;;;2.88;1.60;;;;;;;22.08;32.44;99515.94;4933966;29;20622;-77
2022/04/08 10:23:56;;;;;;;2.42;1.30;;;;;;;21.94;31.42;99525.94;4917582;29;20032;-81
2022/04/08 10:26:26;;;;;;;2.83;1.60;;;;;;;22.08;32.12;99513.31;4931255;29;20143;-77
2022/04/08 10:28:54;;;;;;;3.97;1.67;;;;;;;22.52;31.61;99522.69;4933866;29;20046;-79
2022/04/08 10:31:23;;;;;;;2.72;1.65;;;;;;;22.39;31.78;99528.31;4933573;29;20032;-78
2022/04/08 10:33:48;;;;;;;3.90;1.50;;;;;;;22.23;30.94;99521.69;4933454;29;20032;-81
2022/04/08 10:36:13;;;;;;;2.17;1.45;;;;;;;22.31;31.95;99530.25;4932224;29;20038;-79
2022/04/08 10:38:39;;;;;;;5.57;1.75;;;;;;;22.51;30.76;99521.00;4939862;29;20123;-80
2022/04/08 10:41:09;;;;;;;4.05;1.70;;;;;;;22.65;30.76;99528.50;4933699;29;20039;-79
2022/04/08 10:43:44;;;;;;;;;;;;;;;22.71;30.19;99536.22;4934011;29;20035;-80
2022/04/08 10:46:09;;;;;;;4.05;1.83;;;;;;;22.88;30.34;99498.88;4930580;29;19947;-81
2022/04/08 10:48:35;;;;;;;5.63;1.92;;;;;;;23.20;30.23;99510.25;4923438;29;20499;-82
2022/04/08 10:51:12;;;;;;;4.13;1.60;;;;;;;23.09;29.73;99529.84;4909229;28;20213;-82
2022/04/08 10:53:41;;;;;;;6.03;1.70;;;;;;;23.01;30.34;99542.38;4990766;28;20505;-81
2022/04/08 10:56:13;;;;;;;3.83;1.75;;;;;;;23.01;29.74;99539.75;5040708;28;20024;-77
2022/04/08 10:58:43;;;;;;;1.73;1.58;;;;;;;22.89;29.68;99500.63;5053183;28;20068;-79
2022/04/08 11:01:15;;;;;;;;;;;;;;;23.52;28.76;99529.47;5053541;28;20451;-80
2022/04/08 11:03:51;;;;;;;5.90;1.90;;;;;;;23.67;29.69;99531.59;5053211;28;19909;-80
2022/04/08 11:06:18;;;;;;;3.03;1.50;;;;;;;23.45;31.23;99535.84;5053184;28;20094;-80
2022/04/08 11:08:44;;;;;;;3.35;1.63;;;;;;;22.98;29.13;99518.78;5053381;28;20029;-80
2022/04/08 11:11:10;;;;;;;3.47;1.95;;;;;;;23.12;29.67;99521.00;5052701;28;20053;-80
2022/04/08 11:13:35;;;;;;;4.53;1.67;;;;;;;23.52;28.60;99529.47;5052737;28;20489;-80
2022/04/08 11:16:03;;;;;;;2.05;1.60;;;;;;;23.61;28.58;99525.69;5052844;28;20090;-79
2022/04/08 11:18:28;;;;;;;2.70;1.40;;;;;;;23.71;28.78;99527.09;5052604;28;20033;-80
2022/04/08 11:20:54;;;;;;;2.35;1.60;;;;;;;23.78;28.61;99531.28;5052879;28;20040;-79
2022/04/08 11:23:32;;;;;;;1.88;1.60;;;;;;;23.86;28.52;99521.34;5052833;28;20021;-79
2022/04/08 11:25:58;;;;;;;7.18;1.67;;;;;;;23.87;31.62;99533.59;5051228;28;20044;-79
2022/04/08 11:28:24;;;;;;;6.28;1.67;;;;;;;23.71;28.24;99524.47;5052516;28;20231;-79
2022/04/08 11:30:59;;;;;;;2.63;1.48;;;;;;;23.72;28.04;99523.56;5052594;28;20036;-78
2022/04/08 11:33:25;;;;;;;2.95;1.50;;;;;;;23.37;29.12;99523.75;5052415;28;20032;-79